MST,Max TemperatureF,Mean TemperatureF,Min TemperatureF,Max Dew PointF,MeanDew PointF,Min DewpointF,Max Humidity, Mean Humidity, Min Humidity, Max Sea Level PressureIn, Mean Sea Level PressureIn, Min Sea Level PressureIn, Max VisibilityMiles, Mean VisibilityMiles, Min VisibilityMiles, Max Wind SpeedMPH, Mean Wind SpeedMPH, Max Gust SpeedMPH,PrecipitationIn, CloudCover, Events, WindDirDegrees
2012-11-1,62,48,33,34,29,24,82,54,25,30.03,29.88,29.76,10,10,10,16,4,24,0.00,0,,261
2012-11-2,52,41,29,32,26,23,76,56,35,30.13,29.95,29.72,10,10,10,18,6,29,0.00,2,,303
2012-11-3,51,39,26,29,24,22,85,59,33,30.18,30.14,30.08,10,10,10,14,5,21,0.00,1,,271
2012-11-4,50,43,35,36,29,22,76,61,45,30.22,30.13,30.05,10,10,7,21,7,33,0.01,3,Rain,295
2012-11-5,53,40,27,36,30,21,75,61,46,30.24,30.09,29.99,10,10,10,18,6,29,0.00,1,,290
2012-11-6,54,44,33,31,25,19,75,51,26,30.18,30.12,30.06,10,10,10,21,6,29,0.00,0,,284
2012-11-7,64,48,32,27,23,19,64,42,20,30.05,29.85,29.70,10,10,10,20,8,26,0.00,0,,256
2012-11-8,52,40,28,29,25,18,92,61,30,29.97,29.89,29.72,10,9,1,17,7,23,0.00,3,,56
2012-11-9,46,37,27,31,29,25,100,79,58,29.83,29.72,29.57,10,3,0,10,4,15,0.00,5,Fog,91
2012-11-10,32,19,6,31,22,2,100,87,73,29.90,29.61,29.51,10,4,0,9,3,14,0.28,7,Fog-Snow,30
2012-11-11,17,9,0,6,3,-2,95,75,54,30.20,30.02,29.77,10,9,4,29,11,41,0.00,3,Snow,287
2012-11-12,34,22,10,13,7,2,76,56,35,30.29,30.26,30.21,10,10,10,22,10,32,0.00,0,,268
2012-11-13,42,32,21,24,17,12,81,61,41,30.30,30.22,30.18,10,10,10,17,4,28,0.00,3,,310
2012-11-14,43,32,20,21,18,15,81,57,33,30.22,30.17,30.10,10,10,10,10,5,18,0.00,0,,276
2012-11-15,41,30,19,25,21,18,84,62,40,30.41,30.34,30.21,10,10,10,13,4,22,0.00,0,,202
2012-11-16,53,40,26,25,21,18,92,60,28,30.18,30.07,29.94,10,10,6,21,8,35,0.00,1,,251
2012-11-17,53,41,28,23,21,19,63,45,26,30.09,29.98,29.91,10,10,10,18,7,28,0.00,0,,249
2012-11-18,56,45,33,30,29,27,70,66,62,29.90,29.89,29.87,10,10,10,22,9,33,0.00,0,,235
2012-11-19,51,41,31,28,26,24,70,55,39,30.14,30.12,30.10,10,10,10,18,7,31,0.00,0,,247
2012-11-20,55,48,40,28,26,24,60,45,30,30.06,29.99,29.91,10,10,10,25,11,39,0.00,0,,255
2012-11-21,55,48,40,24,22,20,43,34,24,29.91,29.76,29.64,10,10,10,25,11,39,0.00,0,,254
2012-11-22,42,34,25,29,17,11,70,53,35,30.45,30.14,29.75,10,9,0,28,12,46,T,3,Snow,305
2012-11-23,39,29,19,11,9,4,62,43,24,30.50,30.36,30.07,10,10,10,15,7,24,0.00,0,,270
2012-11-24,55,43,30,23,18,12,54,38,22,30.05,29.93,29.82,10,10,10,13,4,18,0.00,3,,259
2012-11-25,36,29,22,30,25,19,92,74,56,30.18,29.96,29.87,10,3,0,12,5,15,0.30,8,Fog-Snow,57
2012-11-26,25,21,16,20,18,14,92,83,74,30.41,30.22,30.07,10,6,1,14,6,20,0.09,6,Snow,256
2012-11-27,43,29,14,20,11,-1,84,55,25,30.30,30.20,30.12,10,10,10,10,3,17,0.00,0,,277
2012-11-28,46,32,17,19,12,4,67,45,22,30.21,30.09,29.97,10,10,10,14,5,18,0.00,0,,269
2012-11-29,50,38,26,26,21,7,85,56,27,30.01,29.92,29.84,10,10,10,14,6,18,0.00,0,,261
2012-11-30,49,37,25,29,26,22,84,63,42,29.99,29.84,29.67,10,10,10,21,8,32,0.00,0,,243